createdAt,value
2022-08-18T00:00:20.408Z,80.30
2022-08-18T00:02:51.020Z,79.92
2022-08-18T00:05:28.219Z,80.84
2022-08-18T00:07:57.676Z,80.73
2022-08-18T00:10:24.662Z,80.98
2022-08-18T00:12:51.226Z,81.61
2022-08-18T00:15:23.956Z,81.84
2022-08-18T00:17:50.872Z,81.96
2022-08-18T00:20:22.447Z,82.46
2022-08-18T00:22:50.039Z,82.07
2022-08-18T00:25:17.817Z,82.08
2022-08-18T00:27:44.471Z,81.71
2022-08-18T00:30:16.954Z,81.80
2022-08-18T00:32:47.708Z,83.23
2022-08-18T00:35:16.206Z,84.29
2022-08-18T00:37:43.135Z,84.15
2022-08-18T00:40:14.642Z,84.49
2022-08-18T00:42:48.092Z,85.10
2022-08-18T00:45:25.342Z,85.31
2022-08-18T00:47:52.729Z,84.90
2022-08-18T00:50:26.856Z,85.96
2022-08-18T00:52:58.522Z,85.66
2022-08-18T00:55:26.308Z,86.16
2022-08-18T00:58:01.173Z,85.91
2022-08-18T01:00:27.767Z,85.99
2022-08-18T01:02:58.917Z,85.87
2022-08-18T01:05:41.109Z,85.67
2022-08-18T01:08:11.743Z,86.05
2022-08-18T01:10:39.502Z,85.88
2022-08-18T01:13:06.895Z,86.42
2022-08-18T01:15:35.015Z,86.38
2022-08-18T01:18:28.867Z,85.84
2022-08-18T01:21:37.014Z,87.14
2022-08-18T01:24:07.047Z,87.19
2022-08-18T01:26:37.508Z,87.08
2022-08-18T01:29:11.796Z,87.56
2022-08-18T01:31:55.448Z,89.14
2022-08-18T01:34:24.852Z,89.74
2022-08-18T01:36:52.872Z,88.77
2022-08-18T01:40:59.960Z,89.20
2022-08-18T01:42:06.753Z,89.53
2022-08-18T01:44:33.705Z,90.73
2022-08-18T01:47:00.228Z,91.58
2022-08-18T01:49:28.819Z,91.92
2022-08-18T01:51:55.727Z,91.33
2022-08-18T01:54:22.820Z,90.54
2022-08-18T01:56:49.386Z,89.22
2022-08-18T01:59:16.243Z,88.52
2022-08-18T02:01:48.177Z,88.10
2022-08-18T02:04:34.470Z,88.53
2022-08-18T02:07:05.346Z,89.12
2022-08-18T02:09:33.518Z,89.66
2022-08-18T02:12:01.436Z,89.79
2022-08-18T02:14:27.878Z,90.33
2022-08-18T02:17:01.790Z,90.21
2022-08-18T02:19:40.855Z,89.89
2022-08-18T02:22:09.292Z,91.38
2022-08-18T02:24:36.553Z,91.84
2022-08-18T02:27:03.176Z,89.79
2022-08-18T02:29:29.750Z,90.35
2022-08-18T02:31:56.306Z,90.65
2022-08-18T02:34:23.380Z,91.84
2022-08-18T02:36:49.999Z,91.63
2022-08-18T02:39:16.426Z,91.29
2022-08-18T02:41:44.180Z,91.37
2022-08-18T02:44:11.607Z,91.39
2022-08-18T02:46:38.180Z,91.45
2022-08-18T02:49:05.995Z,91.50
2022-08-18T02:51:32.420Z,90.40
2022-08-18T02:53:59.325Z,91.26
2022-08-18T02:56:40.019Z,90.33
2022-08-18T02:59:11.783Z,91.14
2022-08-18T03:01:45.716Z,91.26
2022-08-18T03:04:15.876Z,92.11
2022-08-18T03:06:44.216Z,92.91
2022-08-18T03:09:11.661Z,93.27
2022-08-18T03:11:38.374Z,94.08
2022-08-18T03:14:05.816Z,93.86
2022-08-18T03:16:38.392Z,93.92
2022-08-18T03:19:04.899Z,93.60
2022-08-18T03:21:34.831Z,92.35
2022-08-18T03:24:02.821Z,92.41
2022-08-18T03:26:30.980Z,92.41
2022-08-18T03:28:59.871Z,92.56
2022-08-18T03:31:29.106Z,91.64
2022-08-18T03:33:59.410Z,91.21
2022-08-18T03:36:29.379Z,92.20
2022-08-18T03:38:56.973Z,92.99
2022-08-18T03:41:59.022Z,93.43
2022-08-18T03:44:15.346Z,91.04
2022-08-18T03:46:44.042Z,94.43
2022-08-18T03:49:11.273Z,94.73
2022-08-18T03:51:38.324Z,95.11
2022-08-18T03:54:05.810Z,95.22
2022-08-18T03:56:35.244Z,94.87
2022-08-18T03:59:10.064Z,96.05
2022-08-18T04:01:39.830Z,95.73
2022-08-18T04:04:09.887Z,96.44
2022-08-18T04:06:41.798Z,97.60
2022-08-18T04:09:11.425Z,97.92
2022-08-18T04:11:38.945Z,98.28
2022-08-18T04:14:06.186Z,98.34
2022-08-18T04:16:34.753Z,98.58
2022-08-18T04:19:03.486Z,98.75
2022-08-18T04:21:32.879Z,97.85
2022-08-18T04:24:05.198Z,97.52
2022-08-18T04:26:33.727Z,97.28
2022-08-18T04:29:03.606Z,97.29
2022-08-18T04:31:32.104Z,97.71
2022-08-18T04:34:00.033Z,97.86
2022-08-18T04:36:27.842Z,96.94
2022-08-18T04:38:56.324Z,95.69
2022-08-18T04:41:26.245Z,95.57
2022-08-18T04:44:01.135Z,95.25
2022-08-18T04:46:28.923Z,96.58
2022-08-18T04:48:59.135Z,96.90
2022-08-18T04:52:34.025Z,97.20
2022-08-18T04:54:16.066Z,96.92
2022-08-18T04:56:42.743Z,96.82
2022-08-18T04:59:14.102Z,96.61
2022-08-18T05:01:45.440Z,97.01
2022-08-18T05:04:13.584Z,97.51
2022-08-18T05:06:41.274Z,97.41
2022-08-18T05:09:09.963Z,99.34
2022-08-18T05:11:37.537Z,98.95
2022-08-18T05:14:07.116Z,98.76
2022-08-18T05:16:42.064Z,100.00
2022-08-18T05:19:21.940Z,100.00
2022-08-18T05:21:51.513Z,100.00
2022-08-18T05:24:20.335Z,100.00
2022-08-18T05:26:47.647Z,100.00
2022-08-18T05:29:17.828Z,100.00
2022-08-18T05:31:46.168Z,100.00
2022-08-18T05:34:12.614Z,100.00
2022-08-18T05:36:51.819Z,100.00
2022-08-18T05:39:18.189Z,100.00
2022-08-18T05:41:57.403Z,100.00
2022-08-18T05:44:30.160Z,99.56
2022-08-18T05:47:04.803Z,98.31
2022-08-18T05:49:31.444Z,99.77
2022-08-18T05:52:02.846Z,99.18
2022-08-18T05:55:05.662Z,97.82
2022-08-18T05:57:38.786Z,98.18
2022-08-18T06:00:09.345Z,97.52
2022-08-18T06:02:47.317Z,96.46
2022-08-18T06:05:40.879Z,94.39
2022-08-18T06:08:11.425Z,93.71
2022-08-18T06:10:42.380Z,92.58
2022-08-18T06:13:11.244Z,91.99
2022-08-18T06:15:59.010Z,92.72
2022-08-18T06:18:30.842Z,92.13
2022-08-18T06:21:25.499Z,90.80
2022-08-18T06:24:15.900Z,91.33
2022-08-18T06:27:08.514Z,89.19
2022-08-18T06:29:51.027Z,89.02
2022-08-18T06:32:22.461Z,88.51
2022-08-18T06:35:08.463Z,88.38
2022-08-18T06:38:04.315Z,87.89
2022-08-18T06:40:30.786Z,89.54
2022-08-18T06:42:59.744Z,87.24
2022-08-18T06:45:39.912Z,85.36
2022-08-18T06:48:15.518Z,85.25
2022-08-18T06:50:51.941Z,85.14
2022-08-18T06:53:28.128Z,84.77
2022-08-18T06:55:55.168Z,84.73
2022-08-18T06:58:27.620Z,83.55
2022-08-18T07:00:56.033Z,83.86
2022-08-18T07:03:45.808Z,83.32
2022-08-18T07:06:21.390Z,83.27
2022-08-18T07:08:51.006Z,83.90
2022-08-18T07:11:30.251Z,84.51
2022-08-18T07:14:16.479Z,84.76
2022-08-18T07:16:58.355Z,85.11
2022-08-18T07:19:29.334Z,84.72
2022-08-18T07:22:07.299Z,83.61
2022-08-18T07:24:44.093Z,82.71
2022-08-18T07:27:12.853Z,82.05
2022-08-18T07:30:01.868Z,80.60
2022-08-18T07:32:40.619Z,79.96
2022-08-18T07:35:09.140Z,79.59
2022-08-18T07:38:24.589Z,77.75
2022-08-18T07:40:58.734Z,79.11
2022-08-18T07:43:36.005Z,78.99
2022-08-18T07:46:21.489Z,79.30
2022-08-18T07:48:47.924Z,78.45
2022-08-18T07:51:36.884Z,79.49
2022-08-18T07:54:44.955Z,78.05
2022-08-18T07:57:20.636Z,77.53
2022-08-18T08:00:35.188Z,75.72
2022-08-18T08:03:32.093Z,75.97
2022-08-18T08:06:08.581Z,75.43
2022-08-18T08:09:02.884Z,74.94
2022-08-18T08:11:52.995Z,73.99
2022-08-18T08:14:39.796Z,74.32
2022-08-18T08:17:33.113Z,73.99
2022-08-18T08:20:01.194Z,74.55
2022-08-18T08:22:47.360Z,72.81
2022-08-18T08:25:45.013Z,73.59
2022-08-18T08:28:28.695Z,73.09
2022-08-18T08:31:33.488Z,72.29
2022-08-18T08:34:08.088Z,71.53
2022-08-18T08:36:40.071Z,71.97
2022-08-18T08:39:17.284Z,73.49
2022-08-18T08:41:51.177Z,72.25
2022-08-18T08:44:24.765Z,72.52
2022-08-18T08:47:07.737Z,71.50
2022-08-18T08:49:42.658Z,72.90
2022-08-18T08:52:19.080Z,71.99
2022-08-18T08:54:51.629Z,71.90
2022-08-18T08:57:18.983Z,70.83
2022-08-18T08:59:48.676Z,70.64
2022-08-18T09:05:21.622Z,71.11
2022-08-18T09:08:00.599Z,69.90
2022-08-18T09:10:45.037Z,68.67
2022-08-18T09:13:36.330Z,69.09
2022-08-18T09:16:27.644Z,67.08
2022-08-18T09:19:13.671Z,67.58
2022-08-18T09:21:46.876Z,66.85
2022-08-18T09:24:31.687Z,67.10
2022-08-18T09:27:15.807Z,65.58
2022-08-18T09:29:51.652Z,63.48
2022-08-18T09:32:22.864Z,63.15
2022-08-18T09:35:36.562Z,63.32
2022-08-18T09:38:32.875Z,61.16
2022-08-18T09:41:31.385Z,61.91
2022-08-18T09:44:21.299Z,61.17
2022-08-18T09:46:56.018Z,60.81
2022-08-18T09:49:24.849Z,60.62
2022-08-18T09:52:21.156Z,60.40
2022-08-18T09:54:56.880Z,56.03
2022-08-18T09:57:27.232Z,56.46
2022-08-18T09:59:57.275Z,56.34
2022-08-18T10:02:28.304Z,54.49
2022-08-18T10:05:20.261Z,54.62
2022-08-18T10:07:50.051Z,55.82
2022-08-18T10:11:02.430Z,54.34
2022-08-18T10:13:49.505Z,53.65
2022-08-18T10:16:19.268Z,52.49
2022-08-18T10:19:00.633Z,53.27
2022-08-18T10:21:49.628Z,53.31
2022-08-18T10:24:35.140Z,52.36
2022-08-18T10:27:13.274Z,51.17
2022-08-18T10:29:46.806Z,51.30
2022-08-18T10:32:14.052Z,50.95
2022-08-18T10:34:52.439Z,50.12
2022-08-18T10:37:49.156Z,48.77
2022-08-18T10:40:22.472Z,48.48
2022-08-18T10:46:25.018Z,50.16
2022-08-18T10:49:14.945Z,50.41
2022-08-18T10:52:08.683Z,50.18
2022-08-18T10:55:10.221Z,50.07
2022-08-18T10:57:58.053Z,48.99
2022-08-18T11:00:44.833Z,48.06
2022-08-18T11:03:50.627Z,46.93
2022-08-18T11:06:21.543Z,47.23
2022-08-18T11:08:55.400Z,49.33
2022-08-18T11:11:36.275Z,48.01
2022-08-18T11:14:20.066Z,47.11
2022-08-18T11:16:55.332Z,47.79
2022-08-18T11:19:22.763Z,47.21
2022-08-18T11:21:52.465Z,47.43
2022-08-18T11:24:26.021Z,46.99
2022-08-18T11:26:58.812Z,46.59
2022-08-18T11:29:29.585Z,47.28
2022-08-18T11:32:11.933Z,46.38
2022-08-18T11:37:51.488Z,43.62
2022-08-18T11:41:02.346Z,44.85
2022-08-18T11:43:10.450Z,43.10
2022-08-18T11:45:44.121Z,42.45
2022-08-18T11:48:32.175Z,40.99
2022-08-18T11:51:23.548Z,41.20
2022-08-18T11:54:00.122Z,41.94
2022-08-18T11:56:38.215Z,39.59
2022-08-18T11:59:52.733Z,40.00
2022-08-18T12:02:21.141Z,41.26
2022-08-18T12:04:52.771Z,39.54
2022-08-18T12:07:32.013Z,38.59
2022-08-18T12:10:19.314Z,38.83
2022-08-18T12:12:52.050Z,38.13
2022-08-18T12:15:23.827Z,38.67
2022-08-18T12:17:53.673Z,39.33
2022-08-18T12:20:21.676Z,39.41
2022-08-18T12:22:49.791Z,39.67
2022-08-18T12:25:25.430Z,38.86
2022-08-18T12:27:53.406Z,38.95
2022-08-18T12:30:20.035Z,39.88
2022-08-18T12:32:50.651Z,39.53
2022-08-18T12:35:22.668Z,39.25
2022-08-18T12:38:13.332Z,40.10
2022-08-18T12:40:37.009Z,39.92
2022-08-18T12:43:03.647Z,39.83
2022-08-18T12:45:32.584Z,40.27
2022-08-18T12:48:02.381Z,40.14
2022-08-18T12:50:33.448Z,40.27
2022-08-18T12:53:02.998Z,39.38
2022-08-18T12:55:35.304Z,39.53
2022-08-18T12:58:05.203Z,39.07
2022-08-18T13:00:32.691Z,39.72
2022-08-18T13:02:59.515Z,41.18
2022-08-18T13:05:27.506Z,40.45
2022-08-18T13:07:58.022Z,40.60
2022-08-18T13:10:43.012Z,40.57
2022-08-18T13:13:11.066Z,40.03
2022-08-18T13:15:37.613Z,40.61
2022-08-18T13:18:04.220Z,41.21
2022-08-18T13:20:30.651Z,40.49
2022-08-18T13:22:57.090Z,40.17
2022-08-18T13:25:28.775Z,39.85
2022-08-18T13:28:00.733Z,39.61
2022-08-18T13:30:30.932Z,40.26
2022-08-18T13:33:02.539Z,40.33
2022-08-18T13:35:37.907Z,39.33
2022-08-18T13:38:14.336Z,39.43
2022-08-18T13:40:45.451Z,38.96
2022-08-18T13:43:12.318Z,38.28
2022-08-18T13:45:42.707Z,38.10
2022-08-18T13:48:10.719Z,38.25
2022-08-18T13:50:40.266Z,37.98
2022-08-18T13:53:15.686Z,37.80
2022-08-18T13:55:42.149Z,37.88
2022-08-18T13:58:20.314Z,38.50
2022-08-18T14:00:52.192Z,37.59
2022-08-18T14:03:20.601Z,38.32
2022-08-18T14:06:01.578Z,37.18
2022-08-18T14:08:30.610Z,37.59
2022-08-18T14:11:00.762Z,37.27
2022-08-18T14:13:28.537Z,37.31
2022-08-18T14:15:56.694Z,37.51
2022-08-18T14:18:29.141Z,36.19
2022-08-18T14:21:16.943Z,35.64
2022-08-18T14:24:10.731Z,36.09
2022-08-18T14:26:51.028Z,35.61
2022-08-18T14:29:46.392Z,35.43
2022-08-18T14:32:06.236Z,35.26
2022-08-18T14:34:32.781Z,35.59
2022-08-18T14:36:59.362Z,35.22
2022-08-18T14:39:25.871Z,35.29
2022-08-18T14:41:56.197Z,35.15
2022-08-18T14:44:24.308Z,35.30
2022-08-18T14:46:54.213Z,36.54
2022-08-18T14:49:28.553Z,36.48
2022-08-18T14:51:57.811Z,36.88
2022-08-18T14:54:28.391Z,36.66
2022-08-18T14:56:55.422Z,36.52
2022-08-18T14:59:23.265Z,37.07
2022-08-18T15:01:51.440Z,37.91
2022-08-18T15:04:18.936Z,37.71
2022-08-18T15:06:56.149Z,37.56
2022-08-18T15:09:26.857Z,37.54
2022-08-18T15:11:55.909Z,38.20
2022-08-18T15:14:32.607Z,37.99
2022-08-18T15:17:01.777Z,38.06
2022-08-18T15:19:58.491Z,38.91
2022-08-18T15:22:33.475Z,39.68
2022-08-18T15:25:18.595Z,39.99
2022-08-18T15:27:47.753Z,40.23
2022-08-18T15:30:19.842Z,40.62
2022-08-18T15:32:49.637Z,40.51
2022-08-18T15:35:17.818Z,40.45
2022-08-18T15:37:47.614Z,40.73
2022-08-18T15:40:31.289Z,41.16
2022-08-18T15:43:09.870Z,40.86
2022-08-18T15:45:43.442Z,41.38
2022-08-18T15:48:24.310Z,41.94
2022-08-18T15:50:51.481Z,41.30
2022-08-18T15:53:20.913Z,41.49
2022-08-18T15:55:50.145Z,41.47
2022-08-18T15:58:18.299Z,42.01
2022-08-18T16:00:49.246Z,42.13
2022-08-18T16:03:17.575Z,42.76
2022-08-18T16:05:54.322Z,43.16
2022-08-18T16:08:23.523Z,43.81
2022-08-18T16:10:50.265Z,43.76
2022-08-18T16:13:17.073Z,43.59
2022-08-18T16:15:46.905Z,43.43
2022-08-18T16:18:14.578Z,43.17
2022-08-18T16:20:41.499Z,44.03
2022-08-18T16:23:08.005Z,43.31
2022-08-18T16:25:37.930Z,42.91
2022-08-18T16:28:04.428Z,43.82
2022-08-18T16:30:32.595Z,44.11
2022-08-18T16:33:03.890Z,43.56
2022-08-18T16:35:31.615Z,43.66
2022-08-18T16:38:04.542Z,43.71
2022-08-18T16:40:31.107Z,43.75
2022-08-18T16:43:00.025Z,43.60
2022-08-18T16:45:27.680Z,43.88
2022-08-18T16:47:54.654Z,43.63
2022-08-18T16:50:23.450Z,44.34
2022-08-18T16:52:50.094Z,44.78
2022-08-18T16:55:16.687Z,45.84
2022-08-18T16:58:02.443Z,47.36
2022-08-18T17:00:54.471Z,48.13
2022-08-18T17:03:40.341Z,46.07
2022-08-18T17:06:10.864Z,49.04
2022-08-18T17:08:38.466Z,49.83
2022-08-18T17:11:08.486Z,50.09
2022-08-18T17:13:35.816Z,51.08
2022-08-18T17:16:02.539Z,50.97
2022-08-18T17:18:30.389Z,51.74
2022-08-18T17:21:01.384Z,51.23
2022-08-18T17:23:27.820Z,51.76
2022-08-18T17:25:55.695Z,52.29
2022-08-18T17:28:29.846Z,52.83
2022-08-18T17:30:58.666Z,54.24
2022-08-18T17:33:28.790Z,55.27
2022-08-18T17:36:00.451Z,56.33
2022-08-18T17:38:34.069Z,58.11
2022-08-18T17:41:02.346Z,58.53
2022-08-18T17:46:27.285Z,61.30
2022-08-18T17:48:59.752Z,61.51
2022-08-18T17:51:34.796Z,62.06
2022-08-18T17:54:21.985Z,64.76
2022-08-18T17:56:57.763Z,65.03
2022-08-18T17:59:46.123Z,65.87
2022-08-18T18:02:29.863Z,66.40
2022-08-18T18:05:00.180Z,66.49
2022-08-18T18:07:26.558Z,66.33
2022-08-18T18:10:04.562Z,67.86
2022-08-18T18:12:35.648Z,67.44
2022-08-18T18:15:05.510Z,67.17
2022-08-18T18:17:37.658Z,66.73
2022-08-18T18:20:15.597Z,66.88
2022-08-18T18:22:45.023Z,66.65
2022-08-18T18:25:13.082Z,66.20
2022-08-18T18:27:48.477Z,67.04
2022-08-18T18:30:19.346Z,66.78
2022-08-18T18:33:02.682Z,67.72
2022-08-18T18:35:34.153Z,67.24
2022-08-18T18:38:25.787Z,67.90
2022-08-18T18:41:02.006Z,67.46
2022-08-18T18:43:39.409Z,67.54
2022-08-18T18:46:18.891Z,67.53
2022-08-18T18:49:18.865Z,68.68
2022-08-18T18:52:19.183Z,68.46
2022-08-18T18:55:05.747Z,70.70
2022-08-18T18:57:50.115Z,69.14
2022-08-18T19:00:38.386Z,68.31
2022-08-18T19:03:23.318Z,68.15
2022-08-18T19:06:17.977Z,67.00
2022-08-18T19:09:00.951Z,68.85
2022-08-18T19:11:38.007Z,69.45
2022-08-18T19:14:16.531Z,71.09
2022-08-18T19:16:49.368Z,72.03
2022-08-18T19:19:37.985Z,71.03
2022-08-18T19:22:27.257Z,72.03
2022-08-18T19:25:04.871Z,72.38
2022-08-18T19:27:46.657Z,73.38
2022-08-18T19:30:15.968Z,73.57
2022-08-18T19:32:46.607Z,73.73
2022-08-18T19:35:19.657Z,73.39
2022-08-18T19:38:22.883Z,74.34
2022-08-18T19:40:54.385Z,74.51
2022-08-18T19:43:31.011Z,74.09
2022-08-18T19:46:38.187Z,74.27
2022-08-18T19:49:20.874Z,74.55
2022-08-18T19:51:52.250Z,75.87
2022-08-18T19:54:56.478Z,75.79
2022-08-18T19:57:58.936Z,76.46
2022-08-18T20:00:51.347Z,77.18
2022-08-18T20:03:33.703Z,76.81
2022-08-18T20:06:33.947Z,76.55
2022-08-18T20:09:29.713Z,76.77
2022-08-18T20:12:22.006Z,77.28
2022-08-18T20:15:21.624Z,77.22
2022-08-18T20:17:54.194Z,77.87
2022-08-18T20:20:29.983Z,76.83
2022-08-18T20:22:58.501Z,76.88
2022-08-18T20:25:24.990Z,77.52
2022-08-18T20:28:12.695Z,78.62
2022-08-18T20:31:01.773Z,79.02
2022-08-18T20:33:30.616Z,79.80
2022-08-18T20:36:14.201Z,81.60
2022-08-18T20:38:47.374Z,82.05
2022-08-18T20:41:23.048Z,82.68
2022-08-18T20:44:28.586Z,83.47
2022-08-18T20:47:25.379Z,85.80
2022-08-18T20:50:40.160Z,87.30
2022-08-18T20:53:09.327Z,88.51
2022-08-18T20:56:12.963Z,89.46
2022-08-18T20:59:08.626Z,89.32
2022-08-18T21:01:36.864Z,88.48
2022-08-18T21:04:05.134Z,88.08
2022-08-18T21:06:36.241Z,88.09
2022-08-18T21:09:03.746Z,88.75
2022-08-18T21:11:45.331Z,89.82
2022-08-18T21:14:12.966Z,88.16
2022-08-18T21:16:43.045Z,88.39
2022-08-18T21:19:24.994Z,89.34
2022-08-18T21:22:00.842Z,91.18
2022-08-18T21:24:37.354Z,91.21
2022-08-18T21:27:10.335Z,91.39
2022-08-18T21:29:46.803Z,91.50
2022-08-18T21:32:31.297Z,91.36
2022-08-18T21:35:05.835Z,90.02
2022-08-18T21:37:34.467Z,89.63
2022-08-18T21:40:05.085Z,89.19
2022-08-18T21:42:34.235Z,91.33
2022-08-18T21:45:01.199Z,88.92
2022-08-18T21:47:31.201Z,88.82
2022-08-18T21:50:11.076Z,89.65
2022-08-18T21:52:51.512Z,91.38
2022-08-18T21:55:27.644Z,93.10
2022-08-18T21:58:14.296Z,96.19
2022-08-18T22:00:43.971Z,97.39
2022-08-18T22:03:23.967Z,100.00
2022-08-18T22:06:17.051Z,100.00
2022-08-18T22:08:50.048Z,100.00
2022-08-18T22:12:01.229Z,100.00
2022-08-18T22:14:54.742Z,100.00
2022-08-18T22:17:34.975Z,100.00
2022-08-18T22:20:38.937Z,100.00
2022-08-18T22:23:41.700Z,100.00
2022-08-18T22:26:16.995Z,100.00
2022-08-18T22:28:59.782Z,100.00
2022-08-18T22:31:30.752Z,100.00
2022-08-18T22:34:01.275Z,100.00
2022-08-18T22:36:32.192Z,100.00
2022-08-18T22:39:00.057Z,100.00
2022-08-18T22:41:26.698Z,100.00
2022-08-18T22:43:55.217Z,100.00
2022-08-18T22:46:24.338Z,100.00
2022-08-18T22:48:52.175Z,100.00
2022-08-18T22:51:23.577Z,100.00
2022-08-18T22:53:50.455Z,100.00
2022-08-18T22:56:30.772Z,100.00
2022-08-18T22:59:16.015Z,100.00
2022-08-18T23:01:46.776Z,100.00
2022-08-18T23:04:15.771Z,100.00
2022-08-18T23:06:48.584Z,100.00
2022-08-18T23:09:15.028Z,100.00
2022-08-18T23:11:41.557Z,100.00
2022-08-18T23:14:08.023Z,100.00
2022-08-18T23:16:34.474Z,100.00
2022-08-18T23:19:03.759Z,100.00
2022-08-18T23:21:34.556Z,100.00
2022-08-18T23:24:05.366Z,100.00
2022-08-18T23:26:31.951Z,100.00
2022-08-18T23:28:58.431Z,100.00
2022-08-18T23:31:24.857Z,100.00
2022-08-18T23:33:51.418Z,100.00
2022-08-18T23:36:18.001Z,100.00
2022-08-18T23:38:44.678Z,100.00
2022-08-18T23:41:12.745Z,100.00
2022-08-18T23:43:39.595Z,100.00
2022-08-18T23:46:15.198Z,100.00
2022-08-18T23:48:50.241Z,100.00
2022-08-18T23:51:44.289Z,100.00
2022-08-18T23:54:18.983Z,100.00
2022-08-18T23:56:46.286Z,100.00
2022-08-18T23:59:13.539Z,100.00
